Time;durP1;ratioP1;P1;durP2;ratioP2;P2;SDS_P1;SDS_P2;PMS_P1;PMS_P2;Temp;Humidity;BMP_temperature;BMP_pressure;BME280_temperature;BME280_humidity;BME280_pressure;Samples;Min_cycle;Max_cycle;Signal;HPM_P1;HPM_P2
2022/08/05 00:00:04;;;;;;;7.80;3.40;;;21.70;99.90;;;;;;5013700;28;20203;-65
2022/08/05 00:02:30;;;;;;;7.25;3.72;;;21.50;99.90;;;;;;5028776;28;20184;-65
2022/08/05 00:04:56;;;;;;;4.80;3.00;;;21.40;99.90;;;;;;5013152;28;20210;-65
2022/08/05 00:07:23;;;;;;;5.50;3.40;;;21.20;99.90;;;;;;5013885;28;20245;-65
2022/08/05 00:09:48;;;;;;;5.00;3.38;;;21.10;99.90;;;;;;5013532;28;20210;-65
2022/08/05 00:12:14;;;;;;;7.60;4.03;;;21.00;99.90;;;;;;5013533;28;20199;-65
2022/08/05 00:14:40;;;;;;;9.15;3.70;;;20.90;99.90;;;;;;4995850;28;20652;-65
2022/08/05 00:17:06;;;;;;;7.93;3.65;;;20.90;99.90;;;;;;5013418;28;20195;-65
2022/08/05 00:19:31;;;;;;;6.70;3.63;;;20.80;99.90;;;;;;5013690;28;20638;-65
2022/08/05 00:21:57;;;;;;;10.02;4.28;;;20.80;99.90;;;;;;5013661;28;20711;-65
2022/08/05 00:24:23;;;;;;;8.23;4.00;;;20.70;99.90;;;;;;5013391;28;20234;-65
2022/08/05 00:26:49;;;;;;;4.30;3.55;;;20.70;99.90;;;;;;4995666;28;20196;-65
2022/08/05 00:29:14;;;;;;;5.45;3.53;;;20.60;99.90;;;;;;4996026;28;20176;-65
2022/08/05 00:31:40;;;;;;;7.63;4.15;;;20.50;99.90;;;;;;5014093;28;20525;-65
2022/08/05 00:34:06;;;;;;;7.30;3.40;;;20.50;99.90;;;;;;5013727;28;20223;-65
2022/08/05 00:36:32;;;;;;;7.35;3.45;;;20.40;99.90;;;;;;5015204;28;20187;-65
2022/08/05 00:38:57;;;;;;;5.70;3.70;;;20.40;99.90;;;;;;5017144;28;20176;-65
2022/08/05 00:41:31;;;;;;;5.72;2.78;;;20.30;99.90;;;;;;5017032;28;20284;-65
2022/08/05 00:43:57;;;;;;;6.40;3.70;;;20.30;99.90;;;;;;5017089;28;20175;-65
2022/08/05 00:46:23;;;;;;;4.25;2.58;;;20.20;99.90;;;;;;5017449;28;20200;-65
2022/08/05 00:48:50;;;;;;;4.93;2.85;;;20.20;99.90;;;;;;4999276;28;20186;-65
2022/08/05 00:51:16;;;;;;;6.38;3.00;;;20.20;99.90;;;;;;5016591;28;20203;-65
2022/08/05 00:53:41;;;;;;;4.45;2.92;;;20.20;99.90;;;;;;4999382;28;20203;-65
2022/08/05 00:56:08;;;;;;;6.68;2.78;;;20.20;99.90;;;;;;5016892;28;20235;-65
2022/08/05 00:58:33;;;;;;;4.78;2.80;;;20.20;99.90;;;;;;5016712;28;20180;-65
2022/08/05 01:00:59;;;;;;;5.15;2.63;;;20.20;99.90;;;;;;5016827;28;20176;-65
2022/08/05 01:03:25;;;;;;;5.88;3.13;;;20.20;99.90;;;;;;5016933;28;20633;-65
2022/08/05 01:05:52;;;;;;;7.50;3.45;;;20.10;99.90;;;;;;5016603;28;20212;-65
2022/08/05 01:08:21;;;;;;;7.05;3.55;;;20.10;99.90;;;;;;5016660;28;20186;-65
2022/08/05 01:10:58;;;;;;;3.67;2.63;;;20.10;99.90;;;;;;5016721;28;20229;-65
2022/08/05 01:13:31;;;;;;;4.53;2.85;;;20.10;99.90;;;;;;4999079;28;20172;-65
2022/08/05 01:16:00;;;;;;;6.03;3.03;;;20.10;99.90;;;;;;5016615;28;20207;-65
2022/08/05 01:18:31;;;;;;;5.00;2.95;;;20.20;99.90;;;;;;5016408;28;20187;-65
2022/08/05 01:21:15;;;;;;;6.47;2.80;;;20.10;99.90;;;;;;5016425;28;20160;-65
2022/08/05 01:24:05;;;;;;;5.68;2.88;;;20.20;99.90;;;;;;5016666;28;20235;-65
2022/08/05 01:26:46;;;;;;;5.43;3.28;;;20.10;99.90;;;;;;5016581;28;20210;-65
2022/08/05 01:29:30;;;;;;;6.57;3.38;;;20.10;99.90;;;;;;5016294;28;20252;-65
2022/08/05 01:32:01;;;;;;;3.85;3.03;;;20.00;99.90;;;;;;5016403;28;20166;-65
2022/08/05 01:34:32;;;;;;;6.13;3.10;;;20.00;99.90;;;;;;5016260;28;20175;-65
2022/08/05 01:37:06;;;;;;;5.13;2.80;;;20.00;99.90;;;;;;5016084;28;20195;-65
2022/08/05 01:39:34;;;;;;;6.28;3.05;;;20.00;99.90;;;;;;5016748;28;20610;-65
2022/08/05 01:42:01;;;;;;;5.45;3.05;;;19.90;99.90;;;;;;5016045;28;20196;-65
2022/08/05 01:44:29;;;;;;;7.00;3.10;;;19.90;99.90;;;;;;5031096;28;20207;-65
2022/08/05 01:46:57;;;;;;;5.65;3.33;;;19.90;99.90;;;;;;5015575;28;20253;-65
2022/08/05 01:49:25;;;;;;;4.65;2.72;;;19.90;99.90;;;;;;5015179;28;20176;-65
2022/08/05 01:51:56;;;;;;;4.72;2.88;;;19.80;99.90;;;;;;5015740;28;20199;-65
2022/08/05 01:54:25;;;;;;;6.80;3.13;;;19.80;99.90;;;;;;5016031;28;20640;-65
2022/08/05 01:56:52;;;;;;;5.43;2.85;;;19.80;99.90;;;;;;5015660;28;20215;-66
2022/08/05 01:59:21;;;;;;;4.82;2.85;;;19.90;99.90;;;;;;5016565;28;20664;-65
2022/08/05 02:01:50;;;;;;;6.55;3.15;;;19.90;99.90;;;;;;5016853;28;20267;-65
2022/08/05 02:04:19;;;;;;;6.75;2.97;;;19.80;99.90;;;;;;5016129;28;20298;-65
2022/08/05 02:06:45;;;;;;;4.90;2.97;;;19.80;99.90;;;;;;5016062;28;20200;-65
2022/08/05 02:09:11;;;;;;;4.38;2.70;;;19.80;99.90;;;;;;5015744;28;20649;-65
2022/08/05 02:11:46;;;;;;;4.03;2.72;;;19.80;99.90;;;;;;5030697;28;20259;-65
2022/08/05 02:14:21;;;;;;;5.95;3.10;;;19.80;99.90;;;;;;4997766;28;20167;-65
2022/08/05 02:16:51;;;;;;;3.20;2.70;;;19.90;99.90;;;;;;5015337;28;20235;-65
2022/08/05 02:19:20;;;;;;;5.65;3.28;;;19.80;99.90;;;;;;5015249;28;20168;-65
2022/08/05 02:21:57;;;;;;;5.20;3.28;;;19.80;99.90;;;;;;5014982;28;20178;-65
2022/08/05 02:24:31;;;;;;;7.57;3.95;;;19.80;99.90;;;;;;5015689;28;20234;-65
2022/08/05 02:27:00;;;;;;;3.70;2.60;;;19.80;99.90;;;;;;5030560;28;20200;-65
2022/08/05 02:29:28;;;;;;;5.20;2.67;;;19.80;99.90;;;;;;5015168;28;20187;-65
2022/08/05 02:31:56;;;;;;;6.03;3.15;;;19.80;99.90;;;;;;5015130;28;20233;-65
2022/08/05 02:34:26;;;;;;;6.13;3.33;;;19.80;99.90;;;;;;4997340;28;20675;-65
2022/08/05 02:36:55;;;;;;;7.07;3.58;;;19.90;99.90;;;;;;5014714;28;20288;-65
2022/08/05 02:39:22;;;;;;;4.50;3.10;;;19.90;99.90;;;;;;5015190;28;20206;-65
2022/08/05 02:41:49;;;;;;;4.97;2.95;;;19.90;99.90;;;;;;5014898;28;20307;-65
2022/08/05 02:44:16;;;;;;;9.05;3.50;;;19.90;99.90;;;;;;5014981;28;20610;-65
2022/08/05 02:46:45;;;;;;;5.22;3.45;;;19.80;99.90;;;;;;5015108;28;20192;-65
2022/08/05 02:49:14;;;;;;;5.72;3.22;;;19.80;99.90;;;;;;5014720;28;20180;-65
2022/08/05 02:51:41;;;;;;;6.10;3.40;;;19.80;99.90;;;;;;5014550;28;20274;-65
2022/08/05 02:54:09;;;;;;;5.05;3.40;;;19.60;99.90;;;;;;5014689;28;20208;-65
2022/08/05 02:56:35;;;;;;;6.97;3.50;;;19.60;99.90;;;;;;5014662;28;20227;-65
2022/08/05 02:59:03;;;;;;;8.00;3.10;;;19.60;99.90;;;;;;5014395;28;20180;-65
2022/08/05 03:01:30;;;;;;;10.32;3.70;;;19.60;99.90;;;;;;5014770;28;20222;-65
2022/08/05 03:04:00;;;;;;;7.60;3.58;;;19.60;99.90;;;;;;5015073;28;20244;-65
2022/08/05 03:06:26;;;;;;;6.07;3.50;;;19.60;99.90;;;;;;5014259;28;20187;-65
2022/08/05 03:08:53;;;;;;;4.63;3.13;;;19.70;99.90;;;;;;5015103;28;20172;-65
2022/08/05 03:11:21;;;;;;;6.63;3.72;;;19.70;99.90;;;;;;5014937;28;20160;-65
2022/08/05 03:13:47;;;;;;;7.65;3.90;;;19.70;99.90;;;;;;4996795;28;20549;-65
2022/08/05 03:16:13;;;;;;;5.13;3.70;;;19.70;99.90;;;;;;4996721;28;20257;-65
2022/08/05 03:18:40;;;;;;;7.07;4.03;;;19.70;99.90;;;;;;5014630;28;20176;-65
2022/08/05 03:21:07;;;;;;;9.38;4.45;;;19.70;99.90;;;;;;5014322;28;20183;-64
2022/08/05 03:23:38;;;;;;;8.77;4.95;;;19.60;99.90;;;;;;5014680;28;20168;-63
2022/08/05 03:26:04;;;;;;;11.48;4.68;;;19.60;99.90;;;;;;5014066;28;20261;-64
2022/08/05 03:28:31;;;;;;;10.43;5.40;;;19.50;99.90;;;;;;5014183;28;20176;-64
2022/08/05 03:30:58;;;;;;;13.35;5.53;;;19.50;99.90;;;;;;5014000;28;20172;-64
2022/08/05 03:33:26;;;;;;;8.88;5.10;;;19.50;99.90;;;;;;5013883;28;20187;-64
2022/08/05 03:35:54;;;;;;;10.82;5.70;;;19.40;99.90;;;;;;5013847;28;20210;-64
2022/08/05 03:38:21;;;;;;;8.85;6.13;;;19.40;99.90;;;;;;4996328;28;20550;-64
2022/08/05 03:40:46;;;;;;;11.43;6.20;;;19.30;99.90;;;;;;5013930;28;20167;-64
2022/08/05 03:43:13;;;;;;;16.95;6.97;;;19.10;99.90;;;;;;5014098;28;20183;-64
2022/08/05 03:45:38;;;;;;;13.93;7.50;;;18.90;99.90;;;;;;5013666;28;20261;-64
2022/08/05 03:48:04;;;;;;;17.48;8.25;;;18.80;99.90;;;;;;5014106;28;20172;-63
2022/08/05 03:51:11;;;;;;;14.90;8.48;;;18.50;99.90;;;;;;5013891;28;20179;-62
2022/08/05 03:53:43;;;;;;;12.10;8.07;;;18.40;99.90;;;;;;4995742;28;20232;-62
2022/08/05 03:56:27;;;;;;;18.08;9.23;;;18.30;99.90;;;;;;5028680;28;20215;-61
2022/08/05 03:58:56;;;;;;;15.20;9.07;;;18.30;99.90;;;;;;5013710;28;20171;-61
2022/08/05 04:01:24;;;;;;;16.73;9.57;;;18.20;99.90;;;;;;5014469;28;20536;-61
2022/08/05 04:03:51;;;;;;;15.88;8.88;;;18.10;99.90;;;;;;5013577;28;20259;-61
2022/08/05 04:06:18;;;;;;;16.23;9.95;;;18.10;99.90;;;;;;5013179;28;20204;-61
2022/08/05 04:08:45;;;;;;;13.65;9.40;;;18.00;99.90;;;;;;5028841;28;20214;-62
2022/08/05 04:11:11;;;;;;;15.98;8.65;;;18.00;99.90;;;;;;4997790;28;20176;-61
2022/08/05 04:13:41;;;;;;;13.93;9.50;;;17.90;99.90;;;;;;4999959;28;20176;-61
2022/08/05 04:16:08;;;;;;;12.30;8.52;;;17.90;99.90;;;;;;5017781;28;20259;-64
2022/08/05 04:18:34;;;;;;;14.07;8.45;;;17.90;99.90;;;;;;4999913;28;20214;-64
2022/08/05 04:21:01;;;;;;;16.13;9.02;;;17.90;99.90;;;;;;5017182;28;20172;-64
2022/08/05 04:23:28;;;;;;;11.80;8.68;;;17.80;99.90;;;;;;5017250;28;20187;-64
2022/08/05 04:25:54;;;;;;;14.60;8.48;;;17.80;99.90;;;;;;5017289;28;20692;-64
2022/08/05 04:28:20;;;;;;;15.25;9.68;;;17.80;99.90;;;;;;5017218;28;20191;-64
2022/08/05 04:30:47;;;;;;;16.73;9.88;;;17.50;99.90;;;;;;5017677;28;20589;-64
2022/08/05 04:33:15;;;;;;;17.08;9.07;;;17.50;99.90;;;;;;4999637;28;20176;-64
2022/08/05 04:35:41;;;;;;;21.60;10.13;;;17.60;99.90;;;;;;5016687;28;20241;-64
2022/08/05 04:38:08;;;;;;;18.88;11.00;;;17.70;99.90;;;;;;5017410;28;20180;-64
2022/08/05 04:40:35;;;;;;;17.58;10.63;;;17.70;99.90;;;;;;4999653;28;20644;-64
2022/08/05 04:43:01;;;;;;;16.02;10.18;;;17.70;99.90;;;;;;4999584;28;20553;-64
2022/08/05 04:45:27;;;;;;;22.20;11.18;;;17.80;99.90;;;;;;5017566;28;20200;-64
2022/08/05 04:47:52;;;;;;;19.13;11.30;;;17.70;99.90;;;;;;5017029;28;20210;-64
2022/08/05 04:50:18;;;;;;;18.85;10.63;;;17.70;99.90;;;;;;5016762;28;20164;-64
2022/08/05 04:52:44;;;;;;;19.35;9.88;;;17.80;99.90;;;;;;5016943;28;20637;-64
2022/08/05 04:55:10;;;;;;;20.73;9.98;;;17.90;99.90;;;;;;5016747;28;20191;-64
2022/08/05 04:57:36;;;;;;;18.02;10.57;;;17.90;99.90;;;;;;5016599;28;20215;-64
2022/08/05 05:00:05;;;;;;;12.55;9.55;;;18.00;99.90;;;;;;5017098;28;20255;-64
2022/08/05 05:02:30;;;;;;;17.02;9.38;;;18.00;99.90;;;;;;4999395;28;20243;-64
2022/08/05 05:04:56;;;;;;;18.38;9.50;;;18.10;99.90;;;;;;5017156;28;20211;-70
2022/08/05 05:07:22;;;;;;;17.73;10.32;;;18.20;99.90;;;;;;4999229;28;20257;-66
2022/08/05 05:09:48;;;;;;;16.85;9.10;;;18.20;99.90;;;;;;5016836;28;20629;-65
2022/08/05 05:12:13;;;;;;;16.08;9.02;;;18.30;99.90;;;;;;5016627;28;20669;-65
2022/08/05 05:14:39;;;;;;;13.68;9.38;;;18.30;99.90;;;;;;5016751;28;20543;-65
2022/08/05 05:17:05;;;;;;;12.38;8.70;;;18.30;99.90;;;;;;5016478;28;20238;-65
2022/08/05 05:19:31;;;;;;;17.05;10.73;;;18.30;99.90;;;;;;5016753;28;20168;-65
2022/08/05 05:21:56;;;;;;;15.38;10.02;;;18.30;99.90;;;;;;4998837;28;20191;-65
2022/08/05 05:24:22;;;;;;;17.50;9.75;;;18.10;99.90;;;;;;5016644;28;20199;-65
2022/08/05 05:26:48;;;;;;;16.23;9.73;;;18.10;99.90;;;;;;5016575;28;20191;-65
2022/08/05 05:29:14;;;;;;;13.75;9.15;;;18.00;99.90;;;;;;5016213;28;20253;-65
2022/08/05 05:31:48;;;;;;;16.42;10.70;;;18.10;99.90;;;;;;4998510;28;20200;-65
2022/08/05 05:34:14;;;;;;;17.23;10.40;;;18.20;99.90;;;;;;5016270;28;20198;-65
2022/08/05 05:36:39;;;;;;;16.98;10.75;;;18.20;99.90;;;;;;4998081;28;20203;-65
2022/08/05 05:39:05;;;;;;;18.48;12.73;;;18.20;99.90;;;;;;5016183;28;20160;-64
2022/08/05 05:41:31;;;;;;;22.90;13.20;;;18.20;99.90;;;;;;5016417;28;20168;-65
2022/08/05 05:43:58;;;;;;;21.77;12.65;;;18.00;99.90;;;;;;4998282;28;20172;-64
2022/08/05 05:46:23;;;;;;;19.58;11.32;;;18.00;99.90;;;;;;5015782;28;20207;-65
2022/08/05 05:48:49;;;;;;;20.05;11.75;;;18.00;99.90;;;;;;5015679;28;20520;-64
2022/08/05 05:51:23;;;;;;;20.30;12.57;;;18.00;99.90;;;;;;4997808;28;20255;-64
2022/08/05 05:53:50;;;;;;;24.70;16.15;;;18.10;99.90;;;;;;5015518;28;20160;-64
2022/08/05 05:56:19;;;;;;;25.98;16.38;;;18.00;99.90;;;;;;4997951;28;20626;-64
2022/08/05 05:58:46;;;;;;;28.75;18.30;;;18.10;99.90;;;;;;4998223;28;20241;-65
2022/08/05 06:01:13;;;;;;;24.52;16.55;;;18.00;99.90;;;;;;4999890;28;20590;-64
2022/08/05 06:03:41;;;;;;;23.05;16.35;;;18.10;99.90;;;;;;4998832;28;20187;-68
2022/08/05 06:06:07;;;;;;;22.50;16.52;;;18.20;99.90;;;;;;5016922;28;20204;-68
2022/08/05 06:08:33;;;;;;;25.75;16.90;;;18.30;99.90;;;;;;4999638;28;20318;-69
2022/08/05 06:11:00;;;;;;;24.92;16.05;;;18.30;99.90;;;;;;5015780;28;20239;-69
2022/08/05 06:13:25;;;;;;;23.23;14.63;;;18.40;99.90;;;;;;5015375;28;20202;-69
2022/08/05 06:15:51;;;;;;;23.35;15.25;;;18.40;99.90;;;;;;5015792;28;20210;-69
2022/08/05 06:18:17;;;;;;;25.50;16.20;;;18.50;99.90;;;;;;5015914;28;20556;-70
2022/08/05 06:20:42;;;;;;;26.65;17.00;;;18.50;99.90;;;;;;5014980;28;20183;-69
2022/08/05 06:23:08;;;;;;;20.00;14.35;;;18.50;99.90;;;;;;4997615;28;20191;-70
2022/08/05 06:25:34;;;;;;;24.08;16.20;;;18.60;99.90;;;;;;5015109;28;20222;-69
2022/08/05 06:28:00;;;;;;;18.45;13.25;;;18.60;99.90;;;;;;5015777;28;20168;-69
2022/08/05 06:30:26;;;;;;;25.73;15.95;;;18.70;99.90;;;;;;5015290;28;20171;-69
2022/08/05 06:32:52;;;;;;;23.77;16.38;;;18.70;99.90;;;;;;4997380;28;20653;-69
2022/08/05 06:35:18;;;;;;;27.30;17.02;;;18.80;99.90;;;;;;5014008;28;20180;-69
2022/08/05 06:37:44;;;;;;;26.25;17.20;;;18.70;99.90;;;;;;4997978;28;20294;-69
2022/08/05 06:40:11;;;;;;;27.58;17.45;;;18.80;99.90;;;;;;4997257;28;20271;-70
2022/08/05 06:42:37;;;;;;;24.17;16.15;;;18.70;99.90;;;;;;4997252;28;20195;-67
2022/08/05 06:45:04;;;;;;;28.20;17.35;;;18.70;99.90;;;;;;5015262;28;20210;-67
2022/08/05 06:47:30;;;;;;;24.25;16.48;;;18.70;99.90;;;;;;5014907;28;20198;-67
2022/08/05 06:49:55;;;;;;;26.48;16.80;;;18.70;99.90;;;;;;5014708;28;20176;-67
2022/08/05 06:52:21;;;;;;;29.95;21.05;;;18.70;99.90;;;;;;4996620;28;20187;-67
2022/08/05 06:54:47;;;;;;;29.55;18.35;;;18.60;99.90;;;;;;5014608;28;20184;-67
2022/08/05 06:57:14;;;;;;;37.83;21.35;;;18.60;99.90;;;;;;5014255;28;20215;-67
2022/08/05 06:59:40;;;;;;;40.25;22.40;;;18.60;99.90;;;;;;5014794;28;20176;-67
2022/08/05 07:02:06;;;;;;;34.60;21.35;;;18.50;99.90;;;;;;4996602;28;20180;-67
2022/08/05 07:04:32;;;;;;;38.10;21.95;;;18.40;99.90;;;;;;5014193;28;20214;-67
2022/08/05 07:06:58;;;;;;;34.75;21.55;;;18.30;99.90;;;;;;5013915;28;20191;-67
2022/08/05 07:09:24;;;;;;;35.78;21.20;;;18.20;99.90;;;;;;5014475;28;20214;-67
2022/08/05 07:11:50;;;;;;;30.67;19.50;;;18.10;99.90;;;;;;4996367;28;20184;-67
2022/08/05 07:17:01;;;;;;;37.42;22.85;;;18.10;99.90;;;;;;5014565;28;20198;-67
2022/08/05 07:19:27;;;;;;;31.20;23.38;;;18.20;99.90;;;;;;5013960;28;20282;-67
2022/08/05 07:21:54;;;;;;;38.50;24.35;;;18.10;99.90;;;;;;5013666;28;20176;-67
2022/08/05 07:24:20;;;;;;;37.00;24.02;;;18.10;99.90;;;;;;5014083;28;20515;-67
2022/08/05 07:26:46;;;;;;;39.05;24.88;;;18.10;99.90;;;;;;4996401;28;20222;-67
2022/08/05 07:29:13;;;;;;;43.08;23.38;;;18.00;99.90;;;;;;5013928;28;20174;-66
2022/08/05 07:31:39;;;;;;;38.25;24.90;;;18.00;99.90;;;;;;5013731;28;20521;-67
2022/08/05 07:34:05;;;;;;;38.60;23.30;;;18.00;99.90;;;;;;4996072;28;20191;-67
2022/08/05 07:36:34;;;;;;;40.20;24.13;;;17.90;99.90;;;;;;5013590;28;20211;-67
2022/08/05 07:39:04;;;;;;;42.35;23.90;;;17.90;99.90;;;;;;5013695;28;20191;-67
2022/08/05 07:41:30;;;;;;;38.35;22.63;;;17.90;99.90;;;;;;5013744;28;20215;-67
2022/08/05 07:43:57;;;;;;;39.90;23.83;;;17.90;99.90;;;;;;5013944;28;20180;-67
2022/08/05 07:46:28;;;;;;;40.05;23.48;;;17.80;99.90;;;;;;5012809;28;20703;-67
2022/08/05 07:48:58;;;;;;;35.72;22.35;;;17.80;99.90;;;;;;5013651;28;20199;-67
2022/08/05 07:51:24;;;;;;;41.78;26.42;;;17.80;99.90;;;;;;5013435;28;20538;-67
2022/08/05 07:53:50;;;;;;;44.45;29.17;;;17.80;99.90;;;;;;4995958;28;20176;-67
2022/08/05 07:56:16;;;;;;;43.53;29.80;;;17.80;99.90;;;;;;5013501;28;20211;-67
2022/08/05 07:58:41;;;;;;;43.40;29.92;;;17.80;99.90;;;;;;5013573;28;20637;-67
2022/08/05 08:01:07;;;;;;;40.85;29.98;;;17.70;99.90;;;;;;5013530;28;20637;-67
2022/08/05 08:03:33;;;;;;;45.13;31.75;;;17.60;99.90;;;;;;5013299;28;20183;-67
2022/08/05 08:05:59;;;;;;;41.60;28.23;;;17.50;99.90;;;;;;5013068;28;20233;-67
2022/08/05 08:08:24;;;;;;;35.03;26.40;;;17.50;99.90;;;;;;5013467;28;20180;-67
2022/08/05 08:10:50;;;;;;;31.92;24.27;;;17.50;99.90;;;;;;5013571;28;20204;-67
2022/08/05 08:13:16;;;;;;;33.20;24.10;;;17.40;99.90;;;;;;5013422;28;20179;-67
2022/08/05 08:15:42;;;;;;;27.95;21.17;;;17.30;99.90;;;;;;4995727;28;20188;-67
2022/08/05 08:18:08;;;;;;;29.58;20.40;;;17.30;99.90;;;;;;4995752;28;20180;-67
2022/08/05 08:20:33;;;;;;;26.77;18.75;;;17.30;99.90;;;;;;5013571;28;20186;-63
2022/08/05 08:22:59;;;;;;;26.13;19.17;;;17.30;99.90;;;;;;5013462;28;20593;-67
2022/08/05 08:25:27;;;;;;;29.92;18.88;;;17.40;99.90;;;;;;5013454;28;20224;-67
2022/08/05 08:27:58;;;;;;;26.02;19.33;;;17.30;99.90;;;;;;5013526;28;20187;-67
2022/08/05 08:30:24;;;;;;;25.13;19.33;;;17.40;99.90;;;;;;5013255;28;20160;-67
2022/08/05 08:32:49;;;;;;;22.42;17.70;;;17.40;99.90;;;;;;5013492;28;20172;-67
2022/08/05 08:35:15;;;;;;;26.83;19.92;;;17.50;99.90;;;;;;5013117;28;20195;-67
2022/08/05 08:37:41;;;;;;;29.15;19.30;;;17.60;99.90;;;;;;5013046;28;20200;-67
2022/08/05 08:40:07;;;;;;;22.17;18.00;;;17.50;99.90;;;;;;5013600;28;20529;-67
2022/08/05 08:42:33;;;;;;;21.35;17.38;;;17.50;99.90;;;;;;5013242;28;20184;-67
2022/08/05 08:44:59;;;;;;;30.75;19.05;;;17.50;99.90;;;;;;5013141;28;20218;-67
2022/08/05 08:47:26;;;;;;;22.50;16.25;;;17.50;99.90;;;;;;5013183;28;20326;-67
2022/08/05 08:49:54;;;;;;;21.40;16.05;;;17.40;99.90;;;;;;5013321;28;20220;-67
2022/08/05 08:52:30;;;;;;;20.60;14.52;;;17.30;99.90;;;;;;4995730;28;20180;-67
2022/08/05 08:54:57;;;;;;;20.45;12.27;;;17.20;99.90;;;;;;4997059;28;20575;-67
2022/08/05 08:57:23;;;;;;;14.73;12.45;;;17.10;99.90;;;;;;5015014;28;20684;-67
2022/08/05 08:59:50;;;;;;;18.98;11.82;;;17.10;99.90;;;;;;4999428;28;20238;-67
2022/08/05 09:02:18;;;;;;;18.55;11.75;;;17.10;99.90;;;;;;5017073;28;20184;-67
2022/08/05 09:04:45;;;;;;;18.15;10.75;;;17.00;99.90;;;;;;5016671;28;20231;-67
2022/08/05 09:07:11;;;;;;;14.88;10.85;;;17.10;99.90;;;;;;5016148;28;20196;-67
2022/08/05 09:09:37;;;;;;;17.00;11.77;;;17.10;99.90;;;;;;5016425;28;20179;-67
2022/08/05 09:12:05;;;;;;;17.88;11.52;;;17.10;99.90;;;;;;5016916;28;20164;-67
2022/08/05 09:14:31;;;;;;;20.70;12.00;;;17.00;99.90;;;;;;5016377;28;20594;-67
2022/08/05 09:17:03;;;;;;;14.70;10.50;;;17.00;99.90;;;;;;4998750;28;20205;-67
2022/08/05 09:19:29;;;;;;;16.88;11.52;;;16.90;99.90;;;;;;5016267;28;20160;-67
2022/08/05 09:21:54;;;;;;;17.88;11.88;;;17.00;99.90;;;;;;5016204;28;20226;-67
2022/08/05 09:24:20;;;;;;;15.52;10.55;;;16.90;99.90;;;;;;5016043;28;20180;-67
2022/08/05 09:26:51;;;;;;;20.38;12.85;;;16.90;99.90;;;;;;5016629;28;20239;-67
2022/08/05 09:29:17;;;;;;;21.27;11.30;;;16.90;99.90;;;;;;4998713;28;20667;-67
2022/08/05 09:31:43;;;;;;;17.38;11.98;;;16.90;99.90;;;;;;5016045;28;20172;-67
2022/08/05 09:34:10;;;;;;;17.90;11.27;;;16.90;99.90;;;;;;5015944;28;20191;-68
2022/08/05 09:36:47;;;;;;;17.88;11.35;;;17.00;99.90;;;;;;5015692;28;20199;-68
2022/08/05 09:39:16;;;;;;;17.15;10.77;;;17.00;99.90;;;;;;5015931;28;20160;-68
2022/08/05 09:42:03;;;;;;;15.10;10.15;;;17.10;99.90;;;;;;5017476;28;20172;-64
2022/08/05 09:44:37;;;;;;;14.32;9.23;;;17.10;99.90;;;;;;5016553;28;20172;-64
2022/08/05 09:47:17;;;;;;;12.70;9.55;;;17.10;99.90;;;;;;4998924;28;20207;-63
2022/08/05 09:49:47;;;;;;;15.95;10.45;;;17.20;99.90;;;;;;4998611;28;20168;-65
2022/08/05 09:52:24;;;;;;;12.05;9.27;;;17.20;99.90;;;;;;5015935;28;20169;-65
2022/08/05 09:55:11;;;;;;;15.48;9.88;;;17.20;99.90;;;;;;4998062;28;20186;-65
2022/08/05 09:57:44;;;;;;;19.20;9.50;;;17.30;99.90;;;;;;5030672;28;20207;-65
2022/08/05 10:00:13;;;;;;;14.43;9.32;;;17.30;99.90;;;;;;4998077;28;20552;-64
2022/08/05 10:02:41;;;;;;;15.45;9.07;;;17.40;99.90;;;;;;5015641;28;20195;-67
2022/08/05 10:05:19;;;;;;;11.57;8.13;;;17.40;99.90;;;;;;5015431;28;20266;-68
2022/08/05 10:07:50;;;;;;;11.63;7.30;;;17.40;99.90;;;;;;5014887;28;20203;-68
2022/08/05 10:10:19;;;;;;;11.65;7.72;;;17.40;99.90;;;;;;5014800;28;20531;-68
2022/08/05 10:12:51;;;;;;;12.93;7.10;;;17.50;99.90;;;;;;5015611;28;20164;-68
2022/08/05 10:15:20;;;;;;;12.43;7.30;;;17.60;99.90;;;;;;5015595;28;20660;-68
2022/08/05 10:18:04;;;;;;;12.65;7.15;;;17.60;99.90;;;;;;5015242;28;20204;-68
2022/08/05 10:20:39;;;;;;;9.93;6.05;;;17.70;99.90;;;;;;4997433;28;20168;-68
2022/08/05 10:23:05;;;;;;;7.88;5.00;;;17.60;99.90;;;;;;5014883;28;20167;-68
2022/08/05 10:25:31;;;;;;;10.15;4.85;;;17.60;99.90;;;;;;5015154;28;20196;-68
2022/08/05 10:27:57;;;;;;;12.30;5.90;;;17.50;99.90;;;;;;5014842;28;20200;-68
2022/08/05 10:30:23;;;;;;;10.02;5.63;;;17.50;99.90;;;;;;5015215;28;20176;-68
2022/08/05 10:32:49;;;;;;;16.48;8.55;;;17.50;99.90;;;;;;5015125;28;20230;-64
2022/08/05 10:35:15;;;;;;;11.40;5.65;;;17.50;99.90;;;;;;5014786;28;20196;-64
2022/08/05 10:37:41;;;;;;;12.13;5.10;;;17.40;99.90;;;;;;4997023;28;20329;-64
2022/08/05 10:40:17;;;;;;;9.93;5.38;;;17.50;99.90;;;;;;5015585;28;20512;-64
2022/08/05 10:42:49;;;;;;;11.57;5.93;;;17.60;99.90;;;;;;5015001;28;20194;-64
2022/08/05 10:45:16;;;;;;;10.88;6.03;;;17.60;99.90;;;;;;5015096;28;20192;-64
2022/08/05 10:47:43;;;;;;;10.85;6.00;;;17.60;99.90;;;;;;5014584;28;20216;-64
2022/08/05 10:50:13;;;;;;;9.75;5.65;;;17.70;99.90;;;;;;4997312;28;20192;-66
2022/08/05 10:52:43;;;;;;;11.13;5.72;;;17.70;99.90;;;;;;5014432;28;20636;-66
2022/08/05 10:55:12;;;;;;;13.60;7.05;;;17.60;99.90;;;;;;5014513;28;20183;-67
2022/08/05 10:57:43;;;;;;;8.48;6.05;;;17.60;99.90;;;;;;5014387;28;20607;-66
2022/08/05 11:00:17;;;;;;;10.20;5.97;;;17.60;99.90;;;;;;5014537;28;20179;-64
2022/08/05 11:03:15;;;;;;;9.30;6.35;;;17.60;99.90;;;;;;5014683;28;20170;-64
2022/08/05 11:06:05;;;;;;;9.70;6.05;;;17.40;99.90;;;;;;4964543;28;20277;-64
2022/08/05 11:08:31;;;;;;;11.15;6.53;;;17.40;99.90;;;;;;5015046;28;20587;-64
2022/08/05 11:11:36;;;;;;;12.18;6.82;;;17.40;99.90;;;;;;5014502;28;20224;-64
2022/08/05 11:14:02;;;;;;;11.82;6.05;;;17.40;99.90;;;;;;5014120;28;20168;-64
2022/08/05 11:16:29;;;;;;;11.23;5.72;;;17.40;99.90;;;;;;4996401;28;20226;-64
2022/08/05 11:19:25;;;;;;;10.48;5.85;;;17.50;99.90;;;;;;5014062;28;20271;-64
2022/08/05 11:21:51;;;;;;;11.60;6.32;;;17.50;99.90;;;;;;5013754;28;20171;-64
2022/08/05 11:24:18;;;;;;;9.68;5.80;;;17.50;99.90;;;;;;5013859;28;20243;-64
2022/08/05 11:26:43;;;;;;;10.20;6.00;;;17.60;99.90;;;;;;5013958;28;20602;-64
2022/08/05 11:29:35;;;;;;;9.75;6.22;;;17.70;99.90;;;;;;4996510;28;20176;-64
2022/08/05 11:32:29;;;;;;;12.48;5.88;;;17.70;99.90;;;;;;5013916;28;20175;-64
2022/08/05 11:34:56;;;;;;;10.43;6.00;;;17.90;99.90;;;;;;4996391;28;20570;-64
2022/08/05 11:37:53;;;;;;;12.45;7.28;;;17.90;99.90;;;;;;5028650;28;20222;-65
2022/08/05 11:40:19;;;;;;;13.00;8.07;;;17.90;99.90;;;;;;5013872;28;20160;-64
2022/08/05 11:42:45;;;;;;;12.95;9.55;;;17.90;99.90;;;;;;4996257;28;20174;-64
2022/08/05 11:45:11;;;;;;;15.38;9.80;;;17.90;99.90;;;;;;5014262;28;20210;-64
2022/08/05 11:47:37;;;;;;;15.75;10.57;;;17.90;99.90;;;;;;5013901;28;20676;-64
2022/08/05 11:50:04;;;;;;;16.73;12.35;;;18.00;99.90;;;;;;5013872;28;20160;-64
2022/08/05 11:52:30;;;;;;;13.00;9.38;;;18.10;99.90;;;;;;5013753;28;20171;-64
2022/08/05 11:54:57;;;;;;;12.80;9.70;;;18.20;99.90;;;;;;5014320;28;20219;-68
2022/08/05 11:57:30;;;;;;;14.52;8.35;;;18.40;99.90;;;;;;4995931;28;20219;-69
2022/08/05 11:59:57;;;;;;;11.15;8.60;;;18.60;99.90;;;;;;4996291;28;20171;-69
2022/08/05 12:02:28;;;;;;;12.48;8.57;;;19.00;99.90;;;;;;5014479;28;20700;-68
2022/08/05 12:04:54;;;;;;;11.63;8.00;;;19.30;99.90;;;;;;5029118;28;20290;-68
2022/08/05 12:07:20;;;;;;;9.98;7.35;;;19.40;99.90;;;;;;5014347;28;20210;-66
2022/08/05 12:09:52;;;;;;;8.55;6.60;;;19.40;99.90;;;;;;4996020;28;20184;-67
2022/08/05 12:12:23;;;;;;;9.40;5.97;;;19.50;99.90;;;;;;5013881;28;20171;-67
2022/08/05 12:14:49;;;;;;;7.10;4.57;;;19.70;99.90;;;;;;5014189;28;20218;-68
2022/08/05 12:17:15;;;;;;;8.98;4.53;;;19.90;99.90;;;;;;5013556;28;20211;-68
2022/08/05 12:19:53;;;;;;;5.78;4.00;;;20.10;99.90;;;;;;5028716;28;20180;-68
2022/08/05 12:22:21;;;;;;;6.82;4.22;;;20.40;99.90;;;;;;5013438;28;20218;-68
2022/08/05 12:24:50;;;;;;;8.38;5.40;;;20.80;99.90;;;;;;5013845;28;20221;-68
2022/08/05 12:27:21;;;;;;;6.47;4.22;;;21.00;99.90;;;;;;5013870;28;20188;-69
2022/08/05 12:30:03;;;;;;;7.85;4.22;;;21.30;99.90;;;;;;5013962;28;20613;-69
2022/08/05 12:32:34;;;;;;;7.28;4.10;;;21.80;99.90;;;;;;5015667;28;20160;-69
2022/08/05 12:35:02;;;;;;;5.55;4.30;;;22.00;99.90;;;;;;5017144;28;20194;-69
2022/08/05 12:37:29;;;;;;;8.23;4.57;;;22.10;99.90;;;;;;5017160;28;20192;-69
2022/08/05 12:39:56;;;;;;;7.75;4.60;;;22.00;99.90;;;;;;5017544;28;20570;-70
2022/08/05 12:42:22;;;;;;;5.25;3.30;;;22.30;99.90;;;;;;5017401;28;20164;-70
2022/08/05 12:44:48;;;;;;;4.57;3.13;;;22.40;99.90;;;;;;4999381;28;20614;-70